createdAt,value
2022-08-28T00:01:15.970Z,18.39
2022-08-28T00:03:47.547Z,18.38
2022-08-28T00:06:19.456Z,18.36
2022-08-28T00:08:50.965Z,18.32
2022-08-28T00:11:23.493Z,18.34
2022-08-28T00:13:55.006Z,18.35
2022-08-28T00:16:30.789Z,18.40
2022-08-28T00:19:02.332Z,18.35
2022-08-28T00:21:34.426Z,18.38
2022-08-28T00:24:05.935Z,18.36
2022-08-28T00:26:56.696Z,18.32
2022-08-28T00:29:28.191Z,18.33
2022-08-28T00:32:00.085Z,18.27
2022-08-28T00:34:33.524Z,18.26
2022-08-28T00:37:05.735Z,18.19
2022-08-28T00:39:37.259Z,16.38
2022-08-28T00:42:10.456Z,18.19
2022-08-28T00:44:41.960Z,18.17
2022-08-28T00:47:14.310Z,18.18
2022-08-28T00:49:45.842Z,18.11
2022-08-28T00:52:18.360Z,18.11
2022-08-28T00:54:59.210Z,18.07
2022-08-28T00:57:31.781Z,18.10
2022-08-28T01:00:03.680Z,18.08
2022-08-28T01:02:35.418Z,18.10
2022-08-28T01:05:09.890Z,18.08
2022-08-28T01:07:41.945Z,18.04
2022-08-28T01:10:13.822Z,18.03
2022-08-28T01:12:45.384Z,18.01
2022-08-28T01:15:17.968Z,17.97
2022-08-28T01:17:49.492Z,18.02
2022-08-28T01:20:21.446Z,18.04
2022-08-28T01:22:53.724Z,18.04
2022-08-28T01:25:25.662Z,18.03
2022-08-28T01:27:57.277Z,18.05
2022-08-28T01:30:29.499Z,18.04
2022-08-28T01:33:01.038Z,18.07
2022-08-28T01:35:33.266Z,18.11
2022-08-28T01:38:04.895Z,18.13
2022-08-28T01:40:36.827Z,18.12
2022-08-28T01:43:08.785Z,18.13
2022-08-28T01:45:40.307Z,18.13
2022-08-28T01:48:11.900Z,18.15
2022-08-28T01:50:43.852Z,18.18
2022-08-28T01:53:15.569Z,18.17
2022-08-28T01:55:47.532Z,18.15
2022-08-28T01:58:19.048Z,18.17
2022-08-28T02:00:50.851Z,18.20
2022-08-28T02:03:22.356Z,18.25
2022-08-28T02:05:54.256Z,18.26
2022-08-28T02:08:25.776Z,18.30
2022-08-28T02:10:57.624Z,18.31
2022-08-28T02:13:29.134Z,18.31
2022-08-28T02:16:01.917Z,18.24
2022-08-28T02:18:33.516Z,18.24
2022-08-28T02:21:05.494Z,18.25
2022-08-28T02:23:37.040Z,18.28
2022-08-28T02:26:08.884Z,18.23
2022-08-28T02:28:41.080Z,18.20
2022-08-28T02:31:13.310Z,18.16
2022-08-28T02:33:44.931Z,18.07
2022-08-28T02:36:16.810Z,18.02
2022-08-28T02:38:48.331Z,17.98
2022-08-28T02:41:21.078Z,17.96
2022-08-28T02:43:53.219Z,17.97
2022-08-28T02:46:26.957Z,17.93
2022-08-28T02:48:58.574Z,17.85
2022-08-28T02:51:30.539Z,17.76
2022-08-28T02:54:02.057Z,17.73
2022-08-28T02:56:34.841Z,17.72
2022-08-28T02:59:06.547Z,17.69
2022-08-28T03:01:38.106Z,17.64
2022-08-28T03:04:10.034Z,17.57
2022-08-28T03:06:42.039Z,17.53
2022-08-28T03:09:13.908Z,17.47
2022-08-28T03:11:45.648Z,17.49
2022-08-28T03:14:17.549Z,17.48
2022-08-28T03:16:49.081Z,17.44
2022-08-28T03:19:20.930Z,17.43
2022-08-28T03:21:52.441Z,17.41
2022-08-28T03:24:25.252Z,17.44
2022-08-28T03:26:56.805Z,17.42
2022-08-28T03:29:28.629Z,17.44
2022-08-28T03:32:00.321Z,17.38
2022-08-28T03:34:33.679Z,17.37
2022-08-28T03:37:05.175Z,17.41
2022-08-28T03:39:37.040Z,17.35
2022-08-28T03:42:08.582Z,17.38
2022-08-28T03:44:42.056Z,17.33
2022-08-28T03:47:13.721Z,17.31
2022-08-28T03:49:47.013Z,17.34
2022-08-28T03:52:18.638Z,17.29
2022-08-28T03:54:50.586Z,17.27
2022-08-28T03:57:22.128Z,17.23
2022-08-28T03:59:54.004Z,17.26
2022-08-28T04:02:25.511Z,17.22
2022-08-28T04:04:57.426Z,17.25
2022-08-28T04:07:28.924Z,17.24
2022-08-28T04:10:00.789Z,17.22
2022-08-28T04:12:35.267Z,17.23
2022-08-28T04:15:07.413Z,17.21
2022-08-28T04:17:38.935Z,17.17
2022-08-28T04:20:11.308Z,17.14
2022-08-28T04:22:43.176Z,17.15
2022-08-28T04:25:17.065Z,17.18
2022-08-28T04:27:48.558Z,17.12
2022-08-28T04:30:21.045Z,17.08
2022-08-28T04:32:52.531Z,17.06
2022-08-28T04:35:25.822Z,17.06
2022-08-28T04:37:58.983Z,17.05
2022-08-28T04:40:31.131Z,17.05
2022-08-28T04:43:02.714Z,17.10
2022-08-28T04:45:34.639Z,17.17
2022-08-28T04:48:10.958Z,17.18
2022-08-28T04:50:45.612Z,17.17
2022-08-28T04:53:17.208Z,17.13
2022-08-28T04:55:53.866Z,17.08
2022-08-28T04:58:26.337Z,17.15
2022-08-28T05:00:58.222Z,17.13
2022-08-28T05:03:30.102Z,17.16
2022-08-28T05:06:02.614Z,17.12
2022-08-28T05:08:34.474Z,17.11
2022-08-28T05:11:06.353Z,17.11
2022-08-28T05:13:38.297Z,17.21
2022-08-28T05:16:09.855Z,17.19
2022-08-28T05:18:41.740Z,17.05
2022-08-28T05:21:14.529Z,17.02
2022-08-28T05:23:46.582Z,17.12
2022-08-28T05:26:18.127Z,17.08
2022-08-28T05:28:50.018Z,17.12
2022-08-28T05:31:21.623Z,17.12
2022-08-28T05:33:53.833Z,16.95
2022-08-28T05:36:25.384Z,16.88
2022-08-28T05:39:00.231Z,16.86
2022-08-28T05:41:31.849Z,16.90
2022-08-28T05:44:03.755Z,16.90
2022-08-28T05:46:35.286Z,16.98
2022-08-28T05:49:10.074Z,16.96
2022-08-28T05:51:42.022Z,16.90
2022-08-28T05:54:15.287Z,17.04
2022-08-28T05:56:46.873Z,16.97
2022-08-28T05:59:18.868Z,16.99
2022-08-28T06:01:50.498Z,17.12
2022-08-28T06:04:25.749Z,17.10
2022-08-28T06:06:57.908Z,17.15
2022-08-28T06:09:30.265Z,17.29
2022-08-28T06:12:02.716Z,17.52
2022-08-28T06:14:35.146Z,17.62
2022-08-28T06:17:06.934Z,17.99
2022-08-28T06:19:41.572Z,18.08
2022-08-28T06:22:14.795Z,18.01
2022-08-28T06:24:46.839Z,18.01
2022-08-28T06:27:18.380Z,18.19
2022-08-28T06:29:50.269Z,18.20
2022-08-28T06:32:21.859Z,18.37
2022-08-28T06:34:54.259Z,18.55
2022-08-28T06:37:26.491Z,18.61
2022-08-28T06:39:58.618Z,18.53
2022-08-28T06:42:31.264Z,18.62
2022-08-28T06:45:02.835Z,18.41
2022-08-28T06:47:34.365Z,18.34
2022-08-28T06:50:06.223Z,18.42
2022-08-28T06:52:38.194Z,18.39
2022-08-28T06:55:12.761Z,18.55
2022-08-28T06:57:44.275Z,18.87
2022-08-28T07:00:16.169Z,18.85
2022-08-28T07:02:47.774Z,18.85
2022-08-28T07:05:19.615Z,18.94
2022-08-28T07:07:51.435Z,19.21
2022-08-28T07:10:23.312Z,19.36
2022-08-28T07:12:54.857Z,19.28
2022-08-28T07:15:26.940Z,19.38
2022-08-28T07:17:58.468Z,19.27
2022-08-28T07:20:30.315Z,19.22
2022-08-28T07:23:01.899Z,19.89
2022-08-28T07:25:33.767Z,19.79
2022-08-28T07:28:05.301Z,20.01
2022-08-28T07:30:37.413Z,20.19
2022-08-28T07:33:08.929Z,20.18
2022-08-28T07:35:40.776Z,20.15
2022-08-28T07:38:12.606Z,20.48
2022-08-28T07:40:44.645Z,20.43
2022-08-28T07:43:35.018Z,20.20
2022-08-28T07:46:07.261Z,20.10
2022-08-28T07:48:38.881Z,19.92
2022-08-28T07:51:10.726Z,20.95
2022-08-28T07:53:42.601Z,20.30
2022-08-28T07:56:14.115Z,20.52
2022-08-28T07:58:45.649Z,20.46
2022-08-28T08:01:17.941Z,20.43
2022-08-28T08:03:50.722Z,20.73
2022-08-28T08:06:28.066Z,20.52
2022-08-28T08:09:05.725Z,20.47
2022-08-28T08:11:37.296Z,20.85
2022-08-28T08:14:09.654Z,21.16
2022-08-28T08:16:41.430Z,21.13
2022-08-28T08:19:16.113Z,21.17
2022-08-28T08:21:48.394Z,21.24
2022-08-28T08:24:26.886Z,21.35
2022-08-28T08:27:00.114Z,21.53
2022-08-28T08:29:32.458Z,21.20
2022-08-28T08:32:06.333Z,21.57
2022-08-28T08:34:38.637Z,21.22
2022-08-28T08:37:12.704Z,21.21
2022-08-28T08:39:44.282Z,21.48
2022-08-28T08:42:15.921Z,21.02
2022-08-28T08:44:47.599Z,21.10
2022-08-28T08:47:19.828Z,21.43
2022-08-28T08:49:53.228Z,22.00
2022-08-28T08:52:25.140Z,21.93
2022-08-28T08:54:59.415Z,21.93
2022-08-28T08:57:31.063Z,22.01
2022-08-28T09:00:02.608Z,22.39
2022-08-28T09:02:34.167Z,22.59
2022-08-28T09:05:05.697Z,21.99
2022-08-28T09:07:38.455Z,22.88
2022-08-28T09:10:11.209Z,22.83
2022-08-28T09:12:42.878Z,23.06
2022-08-28T09:15:14.469Z,23.40
2022-08-28T09:17:47.864Z,23.31
2022-08-28T09:20:20.116Z,22.88
2022-08-28T09:22:57.775Z,22.70
2022-08-28T09:25:29.947Z,23.26
2022-08-28T09:28:05.275Z,23.77
2022-08-28T09:30:36.892Z,23.85
2022-08-28T09:33:08.729Z,23.28
2022-08-28T09:35:40.259Z,22.50
2022-08-28T09:38:12.389Z,22.57
2022-08-28T09:41:02.846Z,22.82
2022-08-28T09:43:34.844Z,22.94
2022-08-28T09:46:06.638Z,22.58
2022-08-28T09:48:38.573Z,22.65
2022-08-28T09:51:10.108Z,23.21
2022-08-28T09:53:42.018Z,23.05
2022-08-28T09:56:13.555Z,22.69
2022-08-28T09:58:45.778Z,22.81
2022-08-28T10:01:17.328Z,22.61
2022-08-28T10:03:48.945Z,22.74
2022-08-28T10:06:20.602Z,23.03
2022-08-28T10:08:52.432Z,22.99
2022-08-28T10:11:24.309Z,22.83
2022-08-28T10:13:55.845Z,23.35
2022-08-28T10:16:29.088Z,23.47
2022-08-28T10:19:00.681Z,22.71
2022-08-28T10:21:32.527Z,23.25
2022-08-28T10:24:05.308Z,23.32
2022-08-28T10:26:37.262Z,23.05
2022-08-28T10:29:08.772Z,22.99
2022-08-28T10:31:42.318Z,22.54
2022-08-28T10:36:47.139Z,22.09
2022-08-28T10:39:18.666Z,22.27
2022-08-28T10:41:50.695Z,22.04
2022-08-28T10:44:22.249Z,21.68
2022-08-28T10:46:54.231Z,21.80
2022-08-28T10:49:28.842Z,21.72
2022-08-28T10:52:00.785Z,21.47
2022-08-28T10:54:32.736Z,21.42
2022-08-28T10:57:04.588Z,21.22
2022-08-28T10:59:42.175Z,21.21
2022-08-28T11:02:14.393Z,20.80
2022-08-28T11:04:46.028Z,20.76
2022-08-28T11:07:18.054Z,20.59
2022-08-28T11:09:49.557Z,20.39
2022-08-28T11:12:21.381Z,20.27
2022-08-28T11:14:52.876Z,20.21
2022-08-28T11:17:30.838Z,20.45
2022-08-28T11:20:02.373Z,20.94
2022-08-28T11:22:34.455Z,20.59
2022-08-28T11:25:09.602Z,20.55
2022-08-28T11:27:41.766Z,20.32
2022-08-28T11:30:14.985Z,20.43
2022-08-28T11:32:47.765Z,20.44
2022-08-28T11:35:19.288Z,20.23
2022-08-28T11:37:51.252Z,19.92
2022-08-28T11:40:22.767Z,19.90
2022-08-28T11:42:54.615Z,20.08
2022-08-28T11:45:26.119Z,19.87
2022-08-28T11:47:58.731Z,19.86
2022-08-28T11:50:30.280Z,20.17
2022-08-28T11:53:02.136Z,20.07
2022-08-28T11:55:33.922Z,20.33
2022-08-28T12:00:36.246Z,20.10
2022-08-28T12:03:07.742Z,19.85
2022-08-28T12:05:39.617Z,19.51
2022-08-28T12:08:11.483Z,19.78
2022-08-28T12:10:45.023Z,19.86
2022-08-28T12:13:16.536Z,19.94
2022-08-28T12:15:48.396Z,19.71
2022-08-28T12:18:20.540Z,20.05
2022-08-28T12:20:54.016Z,19.83
2022-08-28T12:23:25.571Z,19.78
2022-08-28T12:25:57.394Z,19.96
2022-08-28T12:28:28.900Z,20.22
2022-08-28T12:31:01.008Z,20.38
2022-08-28T12:33:32.736Z,20.46
2022-08-28T12:36:04.669Z,20.45
2022-08-28T12:38:36.271Z,20.33
2022-08-28T12:41:08.167Z,20.51
2022-08-28T12:43:40.925Z,20.52
2022-08-28T12:46:19.351Z,20.35
2022-08-28T12:48:51.633Z,20.47
2022-08-28T12:51:23.559Z,20.87
2022-08-28T12:53:55.382Z,20.83
2022-08-28T12:56:30.317Z,21.07
2022-08-28T12:59:02.108Z,20.73
2022-08-28T13:01:34.318Z,20.82
2022-08-28T13:04:05.898Z,21.06
2022-08-28T13:06:37.759Z,21.47
2022-08-28T13:09:09.259Z,21.65
2022-08-28T13:11:41.146Z,21.29
2022-08-28T13:14:12.644Z,21.29
2022-08-28T13:16:45.235Z,21.50
2022-08-28T13:19:16.745Z,21.73
2022-08-28T13:21:48.566Z,22.00
2022-08-28T13:24:20.046Z,22.35
2022-08-28T13:26:51.907Z,23.08
2022-08-28T13:29:23.409Z,22.30
2022-08-28T13:31:55.337Z,21.81
2022-08-28T13:34:26.920Z,22.80
2022-08-28T13:36:59.966Z,22.02
2022-08-28T13:39:31.885Z,22.24
2022-08-28T13:42:03.746Z,23.63
2022-08-28T13:44:35.252Z,24.69
2022-08-28T13:47:07.090Z,24.16
2022-08-28T13:49:38.599Z,24.06
2022-08-28T13:52:10.442Z,23.40
2022-08-28T13:54:43.602Z,23.76
2022-08-28T13:57:17.342Z,24.16
2022-08-28T13:59:51.347Z,23.67
2022-08-28T14:02:45.969Z,24.47
2022-08-28T14:05:18.126Z,24.50
2022-08-28T14:07:49.922Z,23.97
2022-08-28T14:10:21.677Z,23.91
2022-08-28T14:12:53.583Z,24.40
2022-08-28T14:15:25.174Z,24.44
2022-08-28T14:17:57.199Z,24.84
2022-08-28T14:20:29.264Z,24.48
2022-08-28T14:23:01.385Z,24.44
2022-08-28T14:25:37.062Z,24.17
2022-08-28T14:28:11.050Z,23.33
2022-08-28T14:30:42.546Z,23.12
2022-08-28T14:33:17.116Z,23.16
2022-08-28T14:35:49.049Z,24.39
2022-08-28T14:38:20.986Z,24.85
2022-08-28T14:40:52.498Z,24.97
2022-08-28T14:43:27.041Z,25.18
2022-08-28T14:45:58.602Z,25.73
2022-08-28T14:48:30.701Z,26.14
2022-08-28T14:51:02.402Z,26.71
2022-08-28T14:53:34.192Z,26.59
2022-08-28T14:56:05.686Z,27.45
2022-08-28T14:58:37.630Z,26.66
2022-08-28T15:01:09.220Z,26.97
2022-08-28T15:03:41.779Z,25.62
2022-08-28T15:06:13.995Z,26.08
2022-08-28T15:08:46.506Z,25.94
2022-08-28T15:11:18.716Z,25.84
2022-08-28T15:13:50.954Z,25.77
2022-08-28T15:16:24.689Z,26.35
2022-08-28T15:18:59.759Z,26.70
2022-08-28T15:21:32.656Z,27.28
2022-08-28T15:24:04.594Z,27.59
2022-08-28T15:26:36.773Z,27.81
2022-08-28T15:29:08.788Z,26.83
2022-08-28T15:31:40.354Z,26.53
2022-08-28T15:34:13.665Z,27.01
2022-08-28T15:36:45.337Z,26.29
2022-08-28T15:39:45.863Z,25.65
2022-08-28T15:42:17.494Z,25.43
2022-08-28T15:44:49.033Z,24.79
2022-08-28T15:47:20.527Z,24.68
2022-08-28T15:49:52.242Z,24.41
2022-08-28T15:52:25.086Z,24.05
2022-08-28T15:54:57.929Z,23.69
2022-08-28T15:57:29.443Z,23.22
2022-08-28T16:00:01.427Z,23.03
2022-08-28T16:02:33.002Z,22.93
2022-08-28T16:05:04.973Z,22.99
2022-08-28T16:07:36.510Z,22.83
2022-08-28T16:10:08.386Z,22.60
2022-08-28T16:12:40.864Z,22.68
2022-08-28T16:15:14.096Z,22.67
2022-08-28T16:17:50.865Z,22.49
2022-08-28T16:20:22.668Z,22.45
2022-08-28T16:22:54.235Z,22.54
2022-08-28T16:25:26.205Z,22.33
2022-08-28T16:27:57.770Z,22.35
2022-08-28T16:30:30.715Z,22.27
2022-08-28T16:33:02.306Z,22.29
2022-08-28T16:35:35.400Z,22.25
2022-08-28T16:38:08.964Z,22.18
2022-08-28T16:40:41.729Z,22.12
2022-08-28T16:43:13.275Z,22.12
2022-08-28T16:45:45.219Z,22.07
2022-08-28T16:48:16.721Z,22.10
2022-08-28T16:50:48.524Z,22.12
2022-08-28T16:53:27.005Z,22.05
2022-08-28T16:55:59.043Z,22.02
2022-08-28T16:58:30.538Z,21.99
2022-08-28T17:01:02.540Z,21.88
2022-08-28T17:03:34.586Z,21.85
2022-08-28T17:06:06.454Z,21.85
2022-08-28T17:08:38.553Z,21.79
2022-08-28T17:11:10.680Z,21.71
2022-08-28T17:13:42.204Z,21.62
2022-08-28T17:16:14.109Z,21.58
2022-08-28T17:18:47.956Z,21.52
2022-08-28T17:21:42.931Z,21.45
2022-08-28T17:24:14.455Z,21.42
2022-08-28T17:26:46.403Z,21.33
2022-08-28T17:29:17.896Z,21.27
2022-08-28T17:31:49.829Z,21.21
2022-08-28T17:34:21.458Z,21.09
2022-08-28T17:36:53.484Z,21.04
2022-08-28T17:39:25.550Z,21.03
2022-08-28T17:41:57.477Z,20.94
2022-08-28T17:44:28.977Z,20.87
2022-08-28T17:47:01.333Z,20.79
2022-08-28T17:49:33.257Z,20.71
2022-08-28T17:52:04.755Z,20.59
2022-08-28T17:54:36.700Z,20.47
2022-08-28T17:57:08.224Z,20.39
2022-08-28T17:59:40.511Z,20.29
2022-08-28T18:02:16.443Z,20.19
2022-08-28T18:04:48.384Z,20.12
2022-08-28T18:07:19.915Z,20.07
2022-08-28T18:09:55.230Z,19.97
2022-08-28T18:12:26.724Z,19.93
2022-08-28T18:14:58.660Z,19.85
2022-08-28T18:17:30.187Z,19.76
2022-08-28T18:20:02.232Z,19.70
2022-08-28T18:22:33.804Z,19.61
2022-08-28T18:25:05.319Z,19.57
2022-08-28T18:27:36.824Z,19.49
2022-08-28T18:30:08.681Z,19.40
2022-08-28T18:32:40.208Z,19.31
2022-08-28T18:35:12.183Z,19.23
2022-08-28T18:37:44.081Z,19.11
2022-08-28T18:40:15.997Z,19.07
2022-08-28T18:42:47.794Z,19.03
2022-08-28T18:45:19.836Z,18.99
2022-08-28T18:47:52.307Z,18.95
2022-08-28T18:50:26.028Z,18.90
2022-08-28T18:52:57.763Z,18.84
2022-08-28T18:55:29.345Z,18.69
2022-08-28T18:58:03.946Z,18.62
2022-08-28T19:00:37.428Z,18.56
2022-08-28T19:03:09.581Z,18.49
2022-08-28T19:05:41.737Z,18.41
2022-08-28T19:08:14.642Z,18.35
2022-08-28T19:10:46.601Z,18.25
2022-08-28T19:13:18.596Z,18.22
2022-08-28T19:15:50.787Z,18.15
2022-08-28T19:18:22.719Z,18.19
2022-08-28T19:20:54.226Z,18.16
2022-08-28T19:23:26.089Z,18.10
2022-08-28T19:25:57.599Z,18.11
2022-08-28T19:28:29.651Z,18.11
2022-08-28T19:31:01.242Z,18.09
2022-08-28T19:33:33.140Z,18.06
2022-08-28T19:36:04.630Z,18.04
2022-08-28T19:38:36.184Z,18.02
2022-08-28T19:41:07.946Z,18.00
2022-08-28T19:43:43.197Z,18.03
2022-08-28T19:46:18.355Z,18.01
2022-08-28T19:48:51.778Z,18.02
2022-08-28T19:51:24.151Z,18.00
2022-08-28T19:53:58.624Z,17.96
2022-08-28T19:56:31.968Z,17.99
2022-08-28T19:59:03.582Z,17.97
2022-08-28T20:01:38.125Z,17.90
2022-08-28T20:04:09.796Z,17.90
2022-08-28T20:06:41.678Z,17.85
2022-08-28T20:09:13.348Z,17.79
2022-08-28T20:11:49.372Z,17.75
2022-08-28T20:14:21.101Z,17.68
2022-08-28T20:16:52.966Z,17.63
2022-08-28T20:19:24.558Z,17.61
2022-08-28T20:21:56.787Z,17.54
2022-08-28T20:24:29.030Z,17.52
2022-08-28T20:27:00.887Z,17.47
2022-08-28T20:29:34.096Z,17.45
2022-08-28T20:32:05.661Z,17.40
2022-08-28T20:34:40.382Z,17.36
2022-08-28T20:37:17.063Z,17.32
2022-08-28T20:39:48.676Z,17.26
2022-08-28T20:42:20.299Z,17.22
2022-08-28T20:44:51.800Z,17.16
2022-08-28T20:47:24.059Z,17.13
2022-08-28T20:49:55.717Z,17.08
2022-08-28T20:52:27.547Z,17.04
2022-08-28T20:54:59.127Z,16.99
2022-08-28T20:57:31.037Z,16.93
2022-08-28T21:00:05.669Z,15.48
2022-08-28T21:02:37.832Z,16.84
2022-08-28T21:05:09.443Z,16.79
2022-08-28T21:07:41.578Z,16.73
2022-08-28T21:10:13.111Z,16.66
2022-08-28T21:12:44.949Z,16.61
2022-08-28T21:15:16.537Z,16.58
2022-08-28T21:17:48.633Z,16.52
2022-08-28T21:20:21.342Z,16.52
2022-08-28T21:22:53.258Z,16.44
2022-08-28T21:25:24.871Z,16.39
2022-08-28T21:27:56.944Z,16.36
2022-08-28T21:30:29.570Z,16.30
2022-08-28T21:33:01.935Z,16.24
2022-08-28T21:35:33.494Z,16.15
2022-08-28T21:38:05.373Z,16.10
2022-08-28T21:40:37.009Z,16.03
2022-08-28T21:43:09.256Z,15.98
2022-08-28T21:45:41.737Z,15.94
2022-08-28T21:48:13.714Z,15.90
2022-08-28T21:50:45.353Z,15.84
2022-08-28T21:53:17.271Z,15.79
2022-08-28T21:55:51.480Z,15.74
2022-08-28T21:58:23.325Z,15.71
2022-08-28T22:00:54.931Z,15.69
2022-08-28T22:03:26.548Z,15.67
2022-08-28T22:05:58.161Z,15.62
2022-08-28T22:08:30.059Z,15.57
2022-08-28T22:11:01.612Z,15.52
2022-08-28T22:13:33.572Z,15.50
2022-08-28T22:16:05.088Z,15.46
2022-08-28T22:18:37.076Z,15.45
2022-08-28T22:21:27.620Z,15.38
2022-08-28T22:23:59.194Z,15.38
2022-08-28T22:26:31.061Z,15.35
2022-08-28T22:29:02.584Z,15.31
2022-08-28T22:31:35.288Z,15.29
2022-08-28T22:34:08.912Z,15.27
2022-08-28T22:36:40.749Z,15.24
2022-08-28T22:39:12.240Z,15.20
2022-08-28T22:41:44.244Z,15.16
2022-08-28T22:44:15.743Z,15.13
2022-08-28T22:46:47.750Z,15.04
2022-08-28T22:49:19.256Z,15.04
2022-08-28T22:51:50.775Z,14.99
2022-08-28T22:54:22.263Z,14.97
2022-08-28T22:56:54.211Z,14.95
2022-08-28T22:59:27.890Z,14.87
2022-08-28T23:01:59.853Z,14.84
2022-08-28T23:04:31.362Z,14.84
2022-08-28T23:07:03.240Z,14.82
2022-08-28T23:09:36.137Z,14.78
2022-08-28T23:12:07.806Z,14.76
2022-08-28T23:14:39.540Z,14.75
2022-08-28T23:17:11.179Z,14.76
2022-08-28T23:19:43.357Z,14.74
2022-08-28T23:22:18.166Z,14.72
2022-08-28T23:24:49.699Z,14.71
2022-08-28T23:27:37.074Z,14.66
2022-08-28T23:30:08.676Z,14.63
2022-08-28T23:32:40.687Z,14.60
2022-08-28T23:35:12.503Z,14.56
2022-08-28T23:37:48.490Z,14.54
2022-08-28T23:40:20.494Z,14.50
2022-08-28T23:42:52.409Z,14.44
2022-08-28T23:45:23.919Z,14.39
2022-08-28T23:47:55.935Z,14.32
2022-08-28T23:50:27.794Z,14.31
2022-08-28T23:52:59.651Z,14.28
2022-08-28T23:55:31.650Z,14.28
2022-08-28T23:58:05.250Z,14.25
